sensor_id;sensor_type;location;lat;lon;timestamp;P1;durP1;ratioP1;P2;durP2;ratioP2
23270;SDS011;11804;51.118;17.058;2023-04-24T00:02:21;11.30;;;6.00;;
23270;SDS011;11804;51.118;17.058;2023-04-24T00:04:49;10.87;;;6.40;;
23270;SDS011;11804;51.118;17.058;2023-04-24T00:07:17;9.90;;;6.20;;
23270;SDS011;11804;51.118;17.058;2023-04-24T00:09:46;11.20;;;6.73;;
23270;SDS011;11804;51.118;17.058;2023-04-24T00:12:13;11.83;;;7.10;;
23270;SDS011;11804;51.118;17.058;2023-04-24T00:14:41;13.50;;;7.13;;
23270;SDS011;11804;51.118;17.058;2023-04-24T00:17:08;10.70;;;6.70;;
23270;SDS011;11804;51.118;17.058;2023-04-24T00:19:36;11.57;;;7.27;;
23270;SDS011;11804;51.118;17.058;2023-04-24T00:22:04;12.27;;;8.43;;
23270;SDS011;11804;51.118;17.058;2023-04-24T00:24:31;13.70;;;7.60;;
23270;SDS011;11804;51.118;17.058;2023-04-24T00:26:59;13.77;;;7.93;;
23270;SDS011;11804;51.118;17.058;2023-04-24T00:29:28;12.23;;;7.80;;
23270;SDS011;11804;51.118;17.058;2023-04-24T00:31:56;13.17;;;7.80;;
23270;SDS011;11804;51.118;17.058;2023-04-24T00:34:24;13.60;;;8.43;;
23270;SDS011;11804;51.118;17.058;2023-04-24T00:36:51;14.53;;;8.40;;
23270;SDS011;11804;51.118;17.058;2023-04-24T00:39:21;14.87;;;8.50;;
23270;SDS011;11804;51.118;17.058;2023-04-24T00:41:51;14.70;;;9.07;;
23270;SDS011;11804;51.118;17.058;2023-04-24T00:44:21;14.10;;;8.37;;
23270;SDS011;11804;51.118;17.058;2023-04-24T00:46:49;13.60;;;8.67;;
23270;SDS011;11804;51.118;17.058;2023-04-24T00:49:18;12.87;;;8.07;;
23270;SDS011;11804;51.118;17.058;2023-04-24T00:51:46;13.57;;;8.00;;
23270;SDS011;11804;51.118;17.058;2023-04-24T00:54:15;15.37;;;8.60;;
23270;SDS011;11804;51.118;17.058;2023-04-24T00:56:43;13.67;;;8.30;;
23270;SDS011;11804;51.118;17.058;2023-04-24T00:59:12;15.63;;;8.70;;
23270;SDS011;11804;51.118;17.058;2023-04-24T01:01:42;15.17;;;8.27;;
23270;SDS011;11804;51.118;17.058;2023-04-24T01:04:11;14.43;;;8.60;;
23270;SDS011;11804;51.118;17.058;2023-04-24T01:06:41;13.13;;;8.80;;
23270;SDS011;11804;51.118;17.058;2023-04-24T01:09:11;13.60;;;8.70;;
23270;SDS011;11804;51.118;17.058;2023-04-24T01:11:40;16.00;;;8.83;;
23270;SDS011;11804;51.118;17.058;2023-04-24T01:14:11;13.10;;;8.67;;
23270;SDS011;11804;51.118;17.058;2023-04-24T01:16:39;13.57;;;8.97;;
23270;SDS011;11804;51.118;17.058;2023-04-24T01:19:07;13.90;;;8.93;;
23270;SDS011;11804;51.118;17.058;2023-04-24T01:21:38;15.63;;;9.43;;
23270;SDS011;11804;51.118;17.058;2023-04-24T01:24:06;17.67;;;9.83;;
23270;SDS011;11804;51.118;17.058;2023-04-24T01:26:34;13.77;;;9.07;;
23270;SDS011;11804;51.118;17.058;2023-04-24T01:29:02;14.63;;;8.87;;
23270;SDS011;11804;51.118;17.058;2023-04-24T01:31:29;16.50;;;9.07;;
23270;SDS011;11804;51.118;17.058;2023-04-24T01:33:59;14.93;;;8.60;;
23270;SDS011;11804;51.118;17.058;2023-04-24T01:36:27;13.13;;;8.73;;
23270;SDS011;11804;51.118;17.058;2023-04-24T01:38:55;14.30;;;8.63;;
23270;SDS011;11804;51.118;17.058;2023-04-24T01:41:23;15.03;;;9.33;;
23270;SDS011;11804;51.118;17.058;2023-04-24T01:43:51;15.43;;;8.83;;
23270;SDS011;11804;51.118;17.058;2023-04-24T01:46:20;16.90;;;9.20;;
23270;SDS011;11804;51.118;17.058;2023-04-24T01:48:48;16.97;;;9.37;;
23270;SDS011;11804;51.118;17.058;2023-04-24T01:51:16;13.73;;;9.07;;
23270;SDS011;11804;51.118;17.058;2023-04-24T01:53:44;17.23;;;9.30;;
23270;SDS011;11804;51.118;17.058;2023-04-24T01:56:12;13.03;;;8.30;;
23270;SDS011;11804;51.118;17.058;2023-04-24T01:58:40;13.83;;;8.37;;
23270;SDS011;11804;51.118;17.058;2023-04-24T02:01:09;14.80;;;8.87;;
23270;SDS011;11804;51.118;17.058;2023-04-24T02:03:39;14.43;;;9.27;;
23270;SDS011;11804;51.118;17.058;2023-04-24T02:06:07;15.90;;;9.67;;
23270;SDS011;11804;51.118;17.058;2023-04-24T02:08:35;14.37;;;8.50;;
23270;SDS011;11804;51.118;17.058;2023-04-24T02:11:02;13.67;;;8.60;;
23270;SDS011;11804;51.118;17.058;2023-04-24T02:13:31;14.67;;;9.07;;
23270;SDS011;11804;51.118;17.058;2023-04-24T02:15:59;13.20;;;7.77;;
23270;SDS011;11804;51.118;17.058;2023-04-24T02:18:27;13.37;;;8.87;;
23270;SDS011;11804;51.118;17.058;2023-04-24T02:20:54;14.63;;;9.03;;
23270;SDS011;11804;51.118;17.058;2023-04-24T02:23:22;15.73;;;9.47;;
23270;SDS011;11804;51.118;17.058;2023-04-24T02:25:49;13.13;;;8.97;;
23270;SDS011;11804;51.118;17.058;2023-04-24T02:28:19;14.90;;;9.13;;
23270;SDS011;11804;51.118;17.058;2023-04-24T02:30:47;15.50;;;9.07;;
23270;SDS011;11804;51.118;17.058;2023-04-24T02:33:14;16.17;;;9.73;;
23270;SDS011;11804;51.118;17.058;2023-04-24T02:35:42;13.40;;;9.00;;
23270;SDS011;11804;51.118;17.058;2023-04-24T02:38:09;15.67;;;9.67;;
23270;SDS011;11804;51.118;17.058;2023-04-24T02:40:37;13.40;;;8.83;;
23270;SDS011;11804;51.118;17.058;2023-04-24T02:43:05;14.87;;;9.40;;
23270;SDS011;11804;51.118;17.058;2023-04-24T02:45:33;14.90;;;9.13;;
23270;SDS011;11804;51.118;17.058;2023-04-24T02:48:00;14.83;;;9.80;;
23270;SDS011;11804;51.118;17.058;2023-04-24T02:50:28;18.07;;;9.23;;
23270;SDS011;11804;51.118;17.058;2023-04-24T02:52:55;14.67;;;8.90;;
23270;SDS011;11804;51.118;17.058;2023-04-24T02:55:24;15.53;;;9.40;;
23270;SDS011;11804;51.118;17.058;2023-04-24T02:57:54;14.30;;;9.30;;
23270;SDS011;11804;51.118;17.058;2023-04-24T03:00:21;12.37;;;8.40;;
23270;SDS011;11804;51.118;17.058;2023-04-24T03:02:49;15.23;;;9.20;;
23270;SDS011;11804;51.118;17.058;2023-04-24T03:05:16;12.67;;;8.47;;
23270;SDS011;11804;51.118;17.058;2023-04-24T03:07:45;13.80;;;8.77;;
23270;SDS011;11804;51.118;17.058;2023-04-24T03:10:13;15.80;;;8.53;;
23270;SDS011;11804;51.118;17.058;2023-04-24T03:12:41;14.27;;;9.03;;
23270;SDS011;11804;51.118;17.058;2023-04-24T03:15:08;13.47;;;8.60;;
23270;SDS011;11804;51.118;17.058;2023-04-24T03:17:36;13.80;;;8.37;;
23270;SDS011;11804;51.118;17.058;2023-04-24T03:20:04;12.20;;;8.13;;
23270;SDS011;11804;51.118;17.058;2023-04-24T03:22:33;15.03;;;9.03;;
23270;SDS011;11804;51.118;17.058;2023-04-24T03:25:01;12.20;;;7.97;;
23270;SDS011;11804;51.118;17.058;2023-04-24T03:27:29;12.50;;;8.00;;
23270;SDS011;11804;51.118;17.058;2023-04-24T03:29:57;12.20;;;8.23;;
23270;SDS011;11804;51.118;17.058;2023-04-24T03:32:27;11.37;;;8.03;;
23270;SDS011;11804;51.118;17.058;2023-04-24T03:34:55;12.23;;;7.27;;
23270;SDS011;11804;51.118;17.058;2023-04-24T03:37:22;10.03;;;7.30;;
23270;SDS011;11804;51.118;17.058;2023-04-24T03:39:50;12.10;;;7.77;;
23270;SDS011;11804;51.118;17.058;2023-04-24T03:42:18;13.37;;;8.27;;
23270;SDS011;11804;51.118;17.058;2023-04-24T03:44:45;13.17;;;8.73;;
23270;SDS011;11804;51.118;17.058;2023-04-24T03:47:14;12.50;;;8.20;;
23270;SDS011;11804;51.118;17.058;2023-04-24T03:49:41;14.53;;;8.20;;
23270;SDS011;11804;51.118;17.058;2023-04-24T03:52:09;15.03;;;8.77;;
23270;SDS011;11804;51.118;17.058;2023-04-24T03:54:37;13.70;;;8.10;;
23270;SDS011;11804;51.118;17.058;2023-04-24T03:57:04;13.00;;;9.07;;
23270;SDS011;11804;51.118;17.058;2023-04-24T03:59:32;12.43;;;7.77;;
23270;SDS011;11804;51.118;17.058;2023-04-24T04:02:00;13.87;;;8.27;;
23270;SDS011;11804;51.118;17.058;2023-04-24T04:04:27;13.53;;;8.33;;
23270;SDS011;11804;51.118;17.058;2023-04-24T04:06:55;12.37;;;8.90;;
23270;SDS011;11804;51.118;17.058;2023-04-24T04:09:24;13.53;;;8.53;;
23270;SDS011;11804;51.118;17.058;2023-04-24T04:11:52;12.10;;;8.07;;
23270;SDS011;11804;51.118;17.058;2023-04-24T04:14:19;12.27;;;7.67;;
23270;SDS011;11804;51.118;17.058;2023-04-24T04:16:48;13.13;;;8.27;;
23270;SDS011;11804;51.118;17.058;2023-04-24T04:19:15;12.80;;;8.10;;
23270;SDS011;11804;51.118;17.058;2023-04-24T04:21:43;13.70;;;8.57;;
23270;SDS011;11804;51.118;17.058;2023-04-24T04:24:11;13.17;;;8.33;;
23270;SDS011;11804;51.118;17.058;2023-04-24T04:26:39;11.90;;;7.73;;
23270;SDS011;11804;51.118;17.058;2023-04-24T04:29:07;11.73;;;7.53;;
23270;SDS011;11804;51.118;17.058;2023-04-24T04:31:34;14.20;;;8.57;;
23270;SDS011;11804;51.118;17.058;2023-04-24T04:34:02;12.00;;;8.10;;
23270;SDS011;11804;51.118;17.058;2023-04-24T04:36:30;12.20;;;7.80;;
23270;SDS011;11804;51.118;17.058;2023-04-24T04:38:58;12.07;;;7.93;;
23270;SDS011;11804;51.118;17.058;2023-04-24T04:41:26;11.77;;;7.73;;
23270;SDS011;11804;51.118;17.058;2023-04-24T04:43:53;13.23;;;7.50;;
23270;SDS011;11804;51.118;17.058;2023-04-24T04:46:22;12.63;;;7.87;;
23270;SDS011;11804;51.118;17.058;2023-04-24T04:48:52;12.10;;;7.90;;
23270;SDS011;11804;51.118;17.058;2023-04-24T04:51:20;11.63;;;7.53;;
23270;SDS011;11804;51.118;17.058;2023-04-24T04:53:48;13.77;;;7.87;;
23270;SDS011;11804;51.118;17.058;2023-04-24T04:56:15;14.83;;;8.67;;
23270;SDS011;11804;51.118;17.058;2023-04-24T04:58:43;12.17;;;8.00;;
23270;SDS011;11804;51.118;17.058;2023-04-24T05:01:11;13.07;;;7.97;;
23270;SDS011;11804;51.118;17.058;2023-04-24T05:03:38;12.67;;;8.33;;
23270;SDS011;11804;51.118;17.058;2023-04-24T05:06:06;11.47;;;7.73;;
23270;SDS011;11804;51.118;17.058;2023-04-24T05:08:34;11.27;;;7.77;;
23270;SDS011;11804;51.118;17.058;2023-04-24T05:11:01;10.17;;;7.50;;
23270;SDS011;11804;51.118;17.058;2023-04-24T05:13:29;13.23;;;7.63;;
23270;SDS011;11804;51.118;17.058;2023-04-24T05:15:57;10.50;;;7.00;;
23270;SDS011;11804;51.118;17.058;2023-04-24T05:18:24;9.15;;;6.42;;
23270;SDS011;11804;51.118;17.058;2023-04-24T05:20:52;8.60;;;5.97;;
23270;SDS011;11804;51.118;17.058;2023-04-24T05:23:20;11.25;;;7.50;;
23270;SDS011;11804;51.118;17.058;2023-04-24T05:25:48;8.48;;;6.33;;
23270;SDS011;11804;51.118;17.058;2023-04-24T05:28:16;8.93;;;6.05;;
23270;SDS011;11804;51.118;17.058;2023-04-24T05:30:43;8.83;;;6.15;;
23270;SDS011;11804;51.118;17.058;2023-04-24T05:33:11;8.23;;;5.60;;
23270;SDS011;11804;51.118;17.058;2023-04-24T05:35:40;8.10;;;5.50;;
23270;SDS011;11804;51.118;17.058;2023-04-24T05:38:12;7.28;;;5.60;;
23270;SDS011;11804;51.118;17.058;2023-04-24T05:40:42;7.58;;;5.17;;
23270;SDS011;11804;51.118;17.058;2023-04-24T05:43:09;7.07;;;5.20;;
23270;SDS011;11804;51.118;17.058;2023-04-24T05:45:37;6.72;;;4.80;;
23270;SDS011;11804;51.118;17.058;2023-04-24T05:48:05;6.03;;;4.58;;
23270;SDS011;11804;51.118;17.058;2023-04-24T05:50:33;7.20;;;4.63;;
23270;SDS011;11804;51.118;17.058;2023-04-24T05:53:00;6.13;;;4.70;;
23270;SDS011;11804;51.118;17.058;2023-04-24T05:55:28;6.42;;;4.30;;
23270;SDS011;11804;51.118;17.058;2023-04-24T05:57:57;6.10;;;4.50;;
23270;SDS011;11804;51.118;17.058;2023-04-24T06:00:25;5.92;;;4.37;;
23270;SDS011;11804;51.118;17.058;2023-04-24T06:02:54;7.07;;;4.73;;
23270;SDS011;11804;51.118;17.058;2023-04-24T06:05:21;6.20;;;4.15;;
23270;SDS011;11804;51.118;17.058;2023-04-24T06:07:49;5.60;;;4.27;;
23270;SDS011;11804;51.118;17.058;2023-04-24T06:10:17;6.13;;;4.47;;
23270;SDS011;11804;51.118;17.058;2023-04-24T06:12:45;6.07;;;4.60;;
23270;SDS011;11804;51.118;17.058;2023-04-24T06:15:12;6.63;;;4.67;;
23270;SDS011;11804;51.118;17.058;2023-04-24T06:17:40;6.75;;;4.65;;
23270;SDS011;11804;51.118;17.058;2023-04-24T06:20:08;7.50;;;4.50;;
23270;SDS011;11804;51.118;17.058;2023-04-24T06:22:36;6.77;;;4.67;;
23270;SDS011;11804;51.118;17.058;2023-04-24T06:25:06;7.65;;;4.55;;
23270;SDS011;11804;51.118;17.058;2023-04-24T06:27:34;6.15;;;4.28;;
23270;SDS011;11804;51.118;17.058;2023-04-24T06:30:03;6.03;;;4.40;;
23270;SDS011;11804;51.118;17.058;2023-04-24T06:32:32;6.37;;;4.20;;
23270;SDS011;11804;51.118;17.058;2023-04-24T06:34:59;6.37;;;4.37;;
23270;SDS011;11804;51.118;17.058;2023-04-24T06:37:27;5.75;;;4.10;;
23270;SDS011;11804;51.118;17.058;2023-04-24T06:39:55;6.70;;;3.83;;
23270;SDS011;11804;51.118;17.058;2023-04-24T06:42:23;5.30;;;3.87;;
23270;SDS011;11804;51.118;17.058;2023-04-24T06:44:51;8.33;;;4.27;;
23270;SDS011;11804;51.118;17.058;2023-04-24T06:47:18;6.53;;;4.33;;
23270;SDS011;11804;51.118;17.058;2023-04-24T06:49:46;6.53;;;4.10;;
23270;SDS011;11804;51.118;17.058;2023-04-24T06:52:14;6.45;;;3.95;;
23270;SDS011;11804;51.118;17.058;2023-04-24T06:54:41;5.92;;;3.98;;
23270;SDS011;11804;51.118;17.058;2023-04-24T06:57:09;5.75;;;4.25;;
23270;SDS011;11804;51.118;17.058;2023-04-24T06:59:37;6.12;;;4.30;;
23270;SDS011;11804;51.118;17.058;2023-04-24T07:02:04;5.78;;;3.80;;
23270;SDS011;11804;51.118;17.058;2023-04-24T07:04:32;8.00;;;3.98;;
23270;SDS011;11804;51.118;17.058;2023-04-24T07:06:59;6.93;;;4.30;;
23270;SDS011;11804;51.118;17.058;2023-04-24T07:09:28;7.95;;;4.75;;
23270;SDS011;11804;51.118;17.058;2023-04-24T07:11:55;7.58;;;3.90;;
23270;SDS011;11804;51.118;17.058;2023-04-24T07:14:23;5.22;;;3.80;;
23270;SDS011;11804;51.118;17.058;2023-04-24T07:16:51;7.20;;;4.67;;
23270;SDS011;11804;51.118;17.058;2023-04-24T07:19:18;6.85;;;3.60;;
23270;SDS011;11804;51.118;17.058;2023-04-24T07:21:47;6.03;;;3.75;;
23270;SDS011;11804;51.118;17.058;2023-04-24T07:24:15;7.90;;;3.90;;
23270;SDS011;11804;51.118;17.058;2023-04-24T07:26:43;8.23;;;4.33;;
23270;SDS011;11804;51.118;17.058;2023-04-24T07:29:12;8.28;;;4.08;;
23270;SDS011;11804;51.118;17.058;2023-04-24T07:31:40;7.85;;;4.15;;
23270;SDS011;11804;51.118;17.058;2023-04-24T07:34:08;8.33;;;4.70;;
23270;SDS011;11804;51.118;17.058;2023-04-24T07:36:36;6.08;;;4.00;;
23270;SDS011;11804;51.118;17.058;2023-04-24T07:39:05;6.78;;;4.42;;
23270;SDS011;11804;51.118;17.058;2023-04-24T07:41:34;5.05;;;3.80;;
23270;SDS011;11804;51.118;17.058;2023-04-24T07:44:01;5.75;;;4.33;;
23270;SDS011;11804;51.118;17.058;2023-04-24T07:46:29;4.65;;;3.75;;
23270;SDS011;11804;51.118;17.058;2023-04-24T07:48:57;5.83;;;4.03;;
23270;SDS011;11804;51.118;17.058;2023-04-24T07:51:27;6.15;;;4.42;;
23270;SDS011;11804;51.118;17.058;2023-04-24T07:53:54;6.42;;;4.00;;
23270;SDS011;11804;51.118;17.058;2023-04-24T07:56:22;9.25;;;4.10;;
23270;SDS011;11804;51.118;17.058;2023-04-24T07:58:49;5.58;;;3.92;;
23270;SDS011;11804;51.118;17.058;2023-04-24T08:01:17;6.00;;;4.15;;
23270;SDS011;11804;51.118;17.058;2023-04-24T08:03:44;5.65;;;4.15;;
23270;SDS011;11804;51.118;17.058;2023-04-24T08:06:12;5.10;;;3.77;;
23270;SDS011;11804;51.118;17.058;2023-04-24T08:08:40;6.97;;;4.33;;
23270;SDS011;11804;51.118;17.058;2023-04-24T08:11:07;7.60;;;4.72;;
23270;SDS011;11804;51.118;17.058;2023-04-24T08:13:35;7.28;;;4.33;;
23270;SDS011;11804;51.118;17.058;2023-04-24T08:16:03;5.00;;;4.28;;
23270;SDS011;11804;51.118;17.058;2023-04-24T08:18:30;5.47;;;4.40;;
23270;SDS011;11804;51.118;17.058;2023-04-24T08:20:59;7.70;;;4.17;;
23270;SDS011;11804;51.118;17.058;2023-04-24T08:23:27;5.20;;;4.15;;
23270;SDS011;11804;51.118;17.058;2023-04-24T08:25:55;5.00;;;3.97;;
23270;SDS011;11804;51.118;17.058;2023-04-24T08:28:23;5.47;;;4.00;;
23270;SDS011;11804;51.118;17.058;2023-04-24T08:30:51;6.45;;;4.50;;
23270;SDS011;11804;51.118;17.058;2023-04-24T08:33:21;4.67;;;3.70;;
23270;SDS011;11804;51.118;17.058;2023-04-24T08:35:49;5.62;;;4.30;;
23270;SDS011;11804;51.118;17.058;2023-04-24T08:38:19;6.55;;;4.53;;
23270;SDS011;11804;51.118;17.058;2023-04-24T08:40:46;7.08;;;4.08;;
23270;SDS011;11804;51.118;17.058;2023-04-24T08:43:15;6.55;;;4.45;;
23270;SDS011;11804;51.118;17.058;2023-04-24T08:45:44;6.22;;;4.80;;
23270;SDS011;11804;51.118;17.058;2023-04-24T08:48:11;6.00;;;4.45;;
23270;SDS011;11804;51.118;17.058;2023-04-24T08:50:40;6.00;;;4.03;;
23270;SDS011;11804;51.118;17.058;2023-04-24T08:53:08;6.37;;;4.42;;
23270;SDS011;11804;51.118;17.058;2023-04-24T08:55:41;5.00;;;3.70;;
23270;SDS011;11804;51.118;17.058;2023-04-24T08:58:06;5.87;;;4.35;;
23270;SDS011;11804;51.118;17.058;2023-04-24T09:00:34;7.62;;;6.00;;
23270;SDS011;11804;51.118;17.058;2023-04-24T09:03:04;4.87;;;3.85;;
23270;SDS011;11804;51.118;17.058;2023-04-24T09:05:33;5.67;;;3.85;;
23270;SDS011;11804;51.118;17.058;2023-04-24T09:08:00;5.50;;;3.98;;
23270;SDS011;11804;51.118;17.058;2023-04-24T09:10:31;5.80;;;3.55;;
23270;SDS011;11804;51.118;17.058;2023-04-24T09:13:00;4.50;;;3.60;;
23270;SDS011;11804;51.118;17.058;2023-04-24T09:15:28;6.62;;;3.70;;
23270;SDS011;11804;51.118;17.058;2023-04-24T09:17:57;4.10;;;3.58;;
23270;SDS011;11804;51.118;17.058;2023-04-24T09:20:25;4.50;;;3.40;;
23270;SDS011;11804;51.118;17.058;2023-04-24T09:22:56;4.10;;;3.40;;
23270;SDS011;11804;51.118;17.058;2023-04-24T09:25:31;5.62;;;4.37;;
23270;SDS011;11804;51.118;17.058;2023-04-24T09:28:02;4.05;;;3.50;;
23270;SDS011;11804;51.118;17.058;2023-04-24T09:30:32;4.90;;;3.77;;
23270;SDS011;11804;51.118;17.058;2023-04-24T09:33:12;5.80;;;3.45;;
23270;SDS011;11804;51.118;17.058;2023-04-24T09:35:48;4.97;;;3.62;;
23270;SDS011;11804;51.118;17.058;2023-04-24T09:38:18;5.33;;;3.60;;
23270;SDS011;11804;51.118;17.058;2023-04-24T09:41:02;4.00;;;3.10;;
23270;SDS011;11804;51.118;17.058;2023-04-24T09:43:31;3.90;;;3.30;;
23270;SDS011;11804;51.118;17.058;2023-04-24T09:46:09;7.28;;;4.70;;
23270;SDS011;11804;51.118;17.058;2023-04-24T09:48:33;5.55;;;4.05;;
23270;SDS011;11804;51.118;17.058;2023-04-24T09:51:04;4.95;;;3.72;;
23270;SDS011;11804;51.118;17.058;2023-04-24T09:53:39;5.25;;;4.20;;
23270;SDS011;11804;51.118;17.058;2023-04-24T09:56:10;6.65;;;4.03;;
23270;SDS011;11804;51.118;17.058;2023-04-24T09:58:41;5.85;;;3.90;;
23270;SDS011;11804;51.118;17.058;2023-04-24T10:01:09;4.12;;;3.70;;
23270;SDS011;11804;51.118;17.058;2023-04-24T10:03:37;4.95;;;3.55;;
23270;SDS011;11804;51.118;17.058;2023-04-24T10:06:06;4.33;;;3.90;;
23270;SDS011;11804;51.118;17.058;2023-04-24T10:08:36;4.47;;;3.62;;
23270;SDS011;11804;51.118;17.058;2023-04-24T10:11:05;5.72;;;3.98;;
23270;SDS011;11804;51.118;17.058;2023-04-24T10:13:34;4.42;;;3.52;;
23270;SDS011;11804;51.118;17.058;2023-04-24T10:16:02;4.87;;;3.42;;
23270;SDS011;11804;51.118;17.058;2023-04-24T10:18:31;3.85;;;3.10;;
23270;SDS011;11804;51.118;17.058;2023-04-24T10:21:00;10.20;;;3.70;;
23270;SDS011;11804;51.118;17.058;2023-04-24T10:23:28;5.60;;;3.62;;
23270;SDS011;11804;51.118;17.058;2023-04-24T10:25:57;4.62;;;3.70;;
23270;SDS011;11804;51.118;17.058;2023-04-24T10:28:27;5.90;;;3.87;;
23270;SDS011;11804;51.118;17.058;2023-04-24T10:30:57;5.80;;;3.95;;
23270;SDS011;11804;51.118;17.058;2023-04-24T10:33:26;7.83;;;4.20;;
23270;SDS011;11804;51.118;17.058;2023-04-24T10:35:54;6.50;;;4.35;;
23270;SDS011;11804;51.118;17.058;2023-04-24T10:38:25;5.37;;;4.00;;
23270;SDS011;11804;51.118;17.058;2023-04-24T10:41:06;5.28;;;4.12;;
23270;SDS011;11804;51.118;17.058;2023-04-24T10:43:39;5.10;;;3.62;;
23270;SDS011;11804;51.118;17.058;2023-04-24T10:46:07;5.50;;;3.85;;
23270;SDS011;11804;51.118;17.058;2023-04-24T10:48:42;5.50;;;4.25;;
23270;SDS011;11804;51.118;17.058;2023-04-24T10:51:12;6.28;;;4.08;;
23270;SDS011;11804;51.118;17.058;2023-04-24T10:53:40;6.15;;;4.15;;
23270;SDS011;11804;51.118;17.058;2023-04-24T10:56:08;7.40;;;4.17;;
23270;SDS011;11804;51.118;17.058;2023-04-24T10:58:37;5.25;;;3.95;;
23270;SDS011;11804;51.118;17.058;2023-04-24T11:01:23;4.55;;;3.60;;
23270;SDS011;11804;51.118;17.058;2023-04-24T11:03:58;8.13;;;4.22;;
23270;SDS011;11804;51.118;17.058;2023-04-24T11:06:29;5.80;;;4.10;;
23270;SDS011;11804;51.118;17.058;2023-04-24T11:09:04;10.53;;;4.28;;
23270;SDS011;11804;51.118;17.058;2023-04-24T11:11:38;6.05;;;4.12;;
23270;SDS011;11804;51.118;17.058;2023-04-24T11:14:09;6.70;;;4.15;;
23270;SDS011;11804;51.118;17.058;2023-04-24T11:16:52;7.25;;;3.95;;
23270;SDS011;11804;51.118;17.058;2023-04-24T11:19:22;6.15;;;3.92;;
23270;SDS011;11804;51.118;17.058;2023-04-24T11:21:55;5.92;;;4.62;;
23270;SDS011;11804;51.118;17.058;2023-04-24T11:27:07;6.28;;;4.58;;
23270;SDS011;11804;51.118;17.058;2023-04-24T11:29:49;5.08;;;3.70;;
23270;SDS011;11804;51.118;17.058;2023-04-24T11:35:06;6.60;;;4.72;;
23270;SDS011;11804;51.118;17.058;2023-04-24T11:37:43;5.15;;;4.05;;
23270;SDS011;11804;51.118;17.058;2023-04-24T11:40:18;6.28;;;4.45;;
23270;SDS011;11804;51.118;17.058;2023-04-24T11:42:49;5.33;;;4.20;;
23270;SDS011;11804;51.118;17.058;2023-04-24T11:45:18;6.67;;;4.65;;
23270;SDS011;11804;51.118;17.058;2023-04-24T11:47:50;6.03;;;4.42;;
23270;SDS011;11804;51.118;17.058;2023-04-24T11:50:19;6.15;;;4.10;;
23270;SDS011;11804;51.118;17.058;2023-04-24T11:52:49;5.53;;;4.08;;
23270;SDS011;11804;51.118;17.058;2023-04-24T11:57:49;7.60;;;4.78;;
23270;SDS011;11804;51.118;17.058;2023-04-24T12:00:19;5.78;;;4.50;;
23270;SDS011;11804;51.118;17.058;2023-04-24T12:02:50;6.28;;;4.47;;
23270;SDS011;11804;51.118;17.058;2023-04-24T12:05:25;6.75;;;4.58;;
23270;SDS011;11804;51.118;17.058;2023-04-24T12:07:54;5.97;;;4.40;;
23270;SDS011;11804;51.118;17.058;2023-04-24T12:10:22;4.72;;;4.00;;
23270;SDS011;11804;51.118;17.058;2023-04-24T12:12:51;6.05;;;4.37;;
23270;SDS011;11804;51.118;17.058;2023-04-24T12:15:19;7.85;;;3.90;;
23270;SDS011;11804;51.118;17.058;2023-04-24T12:17:49;6.78;;;4.22;;
23270;SDS011;11804;51.118;17.058;2023-04-24T12:20:22;4.17;;;3.52;;
23270;SDS011;11804;51.118;17.058;2023-04-24T12:22:52;7.30;;;4.90;;
23270;SDS011;11804;51.118;17.058;2023-04-24T12:25:22;5.62;;;3.85;;
23270;SDS011;11804;51.118;17.058;2023-04-24T12:27:52;6.37;;;4.40;;
23270;SDS011;11804;51.118;17.058;2023-04-24T12:30:25;5.25;;;3.77;;
23270;SDS011;11804;51.118;17.058;2023-04-24T12:32:53;6.17;;;4.20;;
23270;SDS011;11804;51.118;17.058;2023-04-24T12:35:21;5.33;;;3.90;;
23270;SDS011;11804;51.118;17.058;2023-04-24T12:37:50;6.00;;;3.98;;
23270;SDS011;11804;51.118;17.058;2023-04-24T12:40:19;9.03;;;4.65;;
23270;SDS011;11804;51.118;17.058;2023-04-24T12:42:48;8.98;;;4.17;;
23270;SDS011;11804;51.118;17.058;2023-04-24T12:45:17;5.50;;;3.80;;
23270;SDS011;11804;51.118;17.058;2023-04-24T12:47:45;6.28;;;4.35;;
23270;SDS011;11804;51.118;17.058;2023-04-24T12:50:15;6.55;;;3.70;;
23270;SDS011;11804;51.118;17.058;2023-04-24T12:52:44;5.78;;;4.15;;
23270;SDS011;11804;51.118;17.058;2023-04-24T12:55:12;5.47;;;3.80;;
23270;SDS011;11804;51.118;17.058;2023-04-24T12:57:39;5.08;;;3.62;;
23270;SDS011;11804;51.118;17.058;2023-04-24T13:00:08;5.90;;;3.83;;
23270;SDS011;11804;51.118;17.058;2023-04-24T13:02:36;4.78;;;3.70;;
23270;SDS011;11804;51.118;17.058;2023-04-24T13:05:06;4.60;;;3.47;;
23270;SDS011;11804;51.118;17.058;2023-04-24T13:07:33;3.90;;;3.37;;
23270;SDS011;11804;51.118;17.058;2023-04-24T13:10:01;5.12;;;3.55;;
23270;SDS011;11804;51.118;17.058;2023-04-24T13:12:28;9.58;;;4.22;;
23270;SDS011;11804;51.118;17.058;2023-04-24T13:14:56;7.53;;;4.00;;
23270;SDS011;11804;51.118;17.058;2023-04-24T13:17:24;7.05;;;3.72;;
23270;SDS011;11804;51.118;17.058;2023-04-24T13:19:54;6.72;;;2.98;;
23270;SDS011;11804;51.118;17.058;2023-04-24T13:22:21;7.65;;;3.72;;
23270;SDS011;11804;51.118;17.058;2023-04-24T13:24:51;3.72;;;2.50;;
23270;SDS011;11804;51.118;17.058;2023-04-24T13:27:18;3.95;;;1.90;;
23270;SDS011;11804;51.118;17.058;2023-04-24T13:29:46;2.98;;;1.50;;
23270;SDS011;11804;51.118;17.058;2023-04-24T13:32:14;2.08;;;1.35;;
23270;SDS011;11804;51.118;17.058;2023-04-24T13:34:42;1.77;;;1.12;;
23270;SDS011;11804;51.118;17.058;2023-04-24T13:37:09;2.52;;;1.20;;
23270;SDS011;11804;51.118;17.058;2023-04-24T13:39:37;3.17;;;1.50;;
23270;SDS011;11804;51.118;17.058;2023-04-24T13:42:05;2.12;;;1.60;;
23270;SDS011;11804;51.118;17.058;2023-04-24T13:44:32;2.15;;;1.37;;
23270;SDS011;11804;51.118;17.058;2023-04-24T13:47:00;2.45;;;1.60;;
23270;SDS011;11804;51.118;17.058;2023-04-24T13:49:28;3.22;;;1.35;;
23270;SDS011;11804;51.118;17.058;2023-04-24T13:51:57;1.93;;;1.03;;
23270;SDS011;11804;51.118;17.058;2023-04-24T13:54:25;2.10;;;1.12;;
23270;SDS011;11804;51.118;17.058;2023-04-24T13:56:52;0.93;;;0.83;;
23270;SDS011;11804;51.118;17.058;2023-04-24T13:59:22;0.90;;;0.77;;
23270;SDS011;11804;51.118;17.058;2023-04-24T14:01:50;2.90;;;1.35;;
23270;SDS011;11804;51.118;17.058;2023-04-24T14:04:18;2.30;;;1.27;;
23270;SDS011;11804;51.118;17.058;2023-04-24T14:06:47;2.40;;;1.12;;
23270;SDS011;11804;51.118;17.058;2023-04-24T14:09:15;2.85;;;1.10;;
23270;SDS011;11804;51.118;17.058;2023-04-24T14:11:42;1.87;;;0.90;;
23270;SDS011;11804;51.118;17.058;2023-04-24T14:14:10;1.00;;;0.90;;
23270;SDS011;11804;51.118;17.058;2023-04-24T14:16:38;2.07;;;1.13;;
23270;SDS011;11804;51.118;17.058;2023-04-24T14:19:06;3.37;;;1.22;;
23270;SDS011;11804;51.118;17.058;2023-04-24T14:21:33;0.77;;;0.70;;
23270;SDS011;11804;51.118;17.058;2023-04-24T14:24:01;1.40;;;0.75;;
23270;SDS011;11804;51.118;17.058;2023-04-24T14:26:28;2.53;;;1.47;;
23270;SDS011;11804;51.118;17.058;2023-04-24T14:28:56;2.02;;;1.15;;
23270;SDS011;11804;51.118;17.058;2023-04-24T14:31:24;2.35;;;1.40;;
23270;SDS011;11804;51.118;17.058;2023-04-24T14:33:55;3.83;;;1.67;;
23270;SDS011;11804;51.118;17.058;2023-04-24T14:36:23;2.12;;;1.52;;
23270;SDS011;11804;51.118;17.058;2023-04-24T14:38:51;3.62;;;1.85;;
23270;SDS011;11804;51.118;17.058;2023-04-24T14:41:18;4.30;;;1.67;;
23270;SDS011;11804;51.118;17.058;2023-04-24T14:43:46;3.35;;;2.00;;
23270;SDS011;11804;51.118;17.058;2023-04-24T14:46:13;3.22;;;1.92;;
23270;SDS011;11804;51.118;17.058;2023-04-24T14:48:41;3.27;;;1.60;;